sensor_id;sensor_type;location;lat;lon;timestamp;temperature;humidity
54431;DHT22;40342;52.998;5.862;2022-12-20T00:01:50;8.70;99.90
54431;DHT22;40342;52.998;5.862;2022-12-20T00:04:16;8.70;99.90
54431;DHT22;40342;52.998;5.862;2022-12-20T00:06:41;8.70;99.90
54431;DHT22;40342;52.998;5.862;2022-12-20T00:09:08;8.60;99.90
54431;DHT22;40342;52.998;5.862;2022-12-20T00:11:34;8.70;99.90
54431;DHT22;40342;52.998;5.862;2022-12-20T00:14:00;8.70;99.90
54431;DHT22;40342;52.998;5.862;2022-12-20T00:16:27;8.70;99.90
54431;DHT22;40342;52.998;5.862;2022-12-20T00:18:55;9.20;99.90
54431;DHT22;40342;52.998;5.862;2022-12-20T00:21:22;8.70;99.90
54431;DHT22;40342;52.998;5.862;2022-12-20T00:23:48;8.60;99.90
54431;DHT22;40342;52.998;5.862;2022-12-20T00:26:16;8.60;99.90
54431;DHT22;40342;52.998;5.862;2022-12-20T00:28:42;8.70;99.90
54431;DHT22;40342;52.998;5.862;2022-12-20T00:31:10;8.70;99.90
54431;DHT22;40342;52.998;5.862;2022-12-20T00:33:37;8.60;99.90
54431;DHT22;40342;52.998;5.862;2022-12-20T00:36:04;8.70;99.90
54431;DHT22;40342;52.998;5.862;2022-12-20T00:38:30;8.70;99.90
54431;DHT22;40342;52.998;5.862;2022-12-20T00:43:29;8.70;99.90
54431;DHT22;40342;52.998;5.862;2022-12-20T00:45:55;8.80;99.90
54431;DHT22;40342;52.998;5.862;2022-12-20T00:48:21;8.80;99.90
54431;DHT22;40342;52.998;5.862;2022-12-20T00:50:47;8.80;99.90
54431;DHT22;40342;52.998;5.862;2022-12-20T00:53:12;8.80;99.90
54431;DHT22;40342;52.998;5.862;2022-12-20T00:55:41;8.80;99.90
54431;DHT22;40342;52.998;5.862;2022-12-20T00:58:07;8.80;99.90
54431;DHT22;40342;52.998;5.862;2022-12-20T01:00:33;8.80;99.90
54431;DHT22;40342;52.998;5.862;2022-12-20T01:02:58;8.80;99.90
54431;DHT22;40342;52.998;5.862;2022-12-20T01:05:24;8.80;99.90
54431;DHT22;40342;52.998;5.862;2022-12-20T01:07:50;8.80;99.90
54431;DHT22;40342;52.998;5.862;2022-12-20T01:10:15;8.80;99.90
54431;DHT22;40342;52.998;5.862;2022-12-20T01:12:42;8.80;99.90
54431;DHT22;40342;52.998;5.862;2022-12-20T01:15:09;8.70;99.90
54431;DHT22;40342;52.998;5.862;2022-12-20T01:17:35;8.80;99.90
54431;DHT22;40342;52.998;5.862;2022-12-20T01:20:01;8.80;99.90
54431;DHT22;40342;52.998;5.862;2022-12-20T01:22:27;8.80;99.90
54431;DHT22;40342;52.998;5.862;2022-12-20T01:24:52;8.80;99.90
54431;DHT22;40342;52.998;5.862;2022-12-20T01:27:18;8.80;99.90
54431;DHT22;40342;52.998;5.862;2022-12-20T01:29:44;8.80;99.90
54431;DHT22;40342;52.998;5.862;2022-12-20T01:32:09;8.80;99.90
54431;DHT22;40342;52.998;5.862;2022-12-20T01:34:35;8.80;99.90
54431;DHT22;40342;52.998;5.862;2022-12-20T01:37:00;8.80;99.90
54431;DHT22;40342;52.998;5.862;2022-12-20T01:39:26;8.80;99.90
54431;DHT22;40342;52.998;5.862;2022-12-20T01:41:52;8.90;99.90
54431;DHT22;40342;52.998;5.862;2022-12-20T01:46:45;8.90;99.90
54431;DHT22;40342;52.998;5.862;2022-12-20T01:49:19;8.90;99.90
54431;DHT22;40342;52.998;5.862;2022-12-20T01:51:52;8.90;99.90
54431;DHT22;40342;52.998;5.862;2022-12-20T01:56:54;8.90;99.90
54431;DHT22;40342;52.998;5.862;2022-12-20T01:59:21;8.90;99.90
54431;DHT22;40342;52.998;5.862;2022-12-20T02:01:47;8.90;99.90
54431;DHT22;40342;52.998;5.862;2022-12-20T02:04:13;9.00;99.90
54431;DHT22;40342;52.998;5.862;2022-12-20T02:06:38;9.00;99.90
54431;DHT22;40342;52.998;5.862;2022-12-20T02:09:05;9.00;99.90
54431;DHT22;40342;52.998;5.862;2022-12-20T02:14:13;9.00;99.90
54431;DHT22;40342;52.998;5.862;2022-12-20T02:16:50;9.00;99.90
54431;DHT22;40342;52.998;5.862;2022-12-20T02:21:58;9.10;99.90
54431;DHT22;40342;52.998;5.862;2022-12-20T02:27:29;9.00;99.90
54431;DHT22;40342;52.998;5.862;2022-12-20T02:30:05;9.00;99.90
54431;DHT22;40342;52.998;5.862;2022-12-20T02:32:39;9.00;99.90
54431;DHT22;40342;52.998;5.862;2022-12-20T02:35:08;9.00;99.90
54431;DHT22;40342;52.998;5.862;2022-12-20T02:37:34;9.00;99.90
54431;DHT22;40342;52.998;5.862;2022-12-20T02:40:01;8.90;99.90
54431;DHT22;40342;52.998;5.862;2022-12-20T02:42:27;9.00;99.90
54431;DHT22;40342;52.998;5.862;2022-12-20T02:44:57;8.90;99.90
54431;DHT22;40342;52.998;5.862;2022-12-20T02:48:02;8.90;99.90
54431;DHT22;40342;52.998;5.862;2022-12-20T02:50:55;9.00;99.90
54431;DHT22;40342;52.998;5.862;2022-12-20T02:53:22;8.90;99.90
54431;DHT22;40342;52.998;5.862;2022-12-20T02:55:49;9.00;99.90
54431;DHT22;40342;52.998;5.862;2022-12-20T02:58:41;9.00;99.90
54431;DHT22;40342;52.998;5.862;2022-12-20T03:01:13;9.00;99.90
54431;DHT22;40342;52.998;5.862;2022-12-20T03:03:41;9.00;99.90
54431;DHT22;40342;52.998;5.862;2022-12-20T03:06:07;9.00;99.90
54431;DHT22;40342;52.998;5.862;2022-12-20T03:08:33;9.00;99.90
54431;DHT22;40342;52.998;5.862;2022-12-20T03:10:59;9.00;99.90
54431;DHT22;40342;52.998;5.862;2022-12-20T03:13:25;9.00;99.90
54431;DHT22;40342;52.998;5.862;2022-12-20T03:15:51;9.00;99.90
54431;DHT22;40342;52.998;5.862;2022-12-20T03:18:17;9.00;99.90
54431;DHT22;40342;52.998;5.862;2022-12-20T03:20:43;9.00;99.90
54431;DHT22;40342;52.998;5.862;2022-12-20T03:23:08;9.10;99.90
54431;DHT22;40342;52.998;5.862;2022-12-20T03:25:34;9.10;99.90
54431;DHT22;40342;52.998;5.862;2022-12-20T03:28:00;9.60;99.90
54431;DHT22;40342;52.998;5.862;2022-12-20T03:30:25;9.00;99.90
54431;DHT22;40342;52.998;5.862;2022-12-20T03:32:51;9.10;99.90
54431;DHT22;40342;52.998;5.862;2022-12-20T03:35:17;9.00;99.90
54431;DHT22;40342;52.998;5.862;2022-12-20T03:37:42;9.10;99.90
54431;DHT22;40342;52.998;5.862;2022-12-20T03:40:09;9.00;99.90
54431;DHT22;40342;52.998;5.862;2022-12-20T03:42:35;9.10;99.90
54431;DHT22;40342;52.998;5.862;2022-12-20T03:45:01;9.00;99.90
54431;DHT22;40342;52.998;5.862;2022-12-20T03:47:26;9.00;99.90
54431;DHT22;40342;52.998;5.862;2022-12-20T03:49:52;9.00;99.90
54431;DHT22;40342;52.998;5.862;2022-12-20T03:52:18;9.00;99.90
54431;DHT22;40342;52.998;5.862;2022-12-20T03:54:44;9.00;99.90
54431;DHT22;40342;52.998;5.862;2022-12-20T03:57:09;9.00;99.90
54431;DHT22;40342;52.998;5.862;2022-12-20T03:59:35;9.00;99.90
54431;DHT22;40342;52.998;5.862;2022-12-20T04:02:01;9.00;99.90
54431;DHT22;40342;52.998;5.862;2022-12-20T04:04:27;9.00;99.90
54431;DHT22;40342;52.998;5.862;2022-12-20T04:06:53;9.00;99.90
54431;DHT22;40342;52.998;5.862;2022-12-20T04:09:18;9.00;99.90
54431;DHT22;40342;52.998;5.862;2022-12-20T04:11:44;9.00;99.90
54431;DHT22;40342;52.998;5.862;2022-12-20T04:14:09;9.00;99.90
54431;DHT22;40342;52.998;5.862;2022-12-20T04:16:35;9.10;99.90
54431;DHT22;40342;52.998;5.862;2022-12-20T04:19:00;9.10;99.90
54431;DHT22;40342;52.998;5.862;2022-12-20T04:21:32;9.10;99.90
54431;DHT22;40342;52.998;5.862;2022-12-20T04:23:59;9.00;99.90
54431;DHT22;40342;52.998;5.862;2022-12-20T04:26:25;9.10;99.90
54431;DHT22;40342;52.998;5.862;2022-12-20T04:28:51;9.10;99.90
54431;DHT22;40342;52.998;5.862;2022-12-20T04:31:17;9.10;99.90
54431;DHT22;40342;52.998;5.862;2022-12-20T04:33:44;9.10;99.90
54431;DHT22;40342;52.998;5.862;2022-12-20T04:36:10;9.10;99.90
54431;DHT22;40342;52.998;5.862;2022-12-20T04:38:36;9.20;99.90
54431;DHT22;40342;52.998;5.862;2022-12-20T04:41:01;9.20;99.90
54431;DHT22;40342;52.998;5.862;2022-12-20T04:43:27;9.20;99.90
54431;DHT22;40342;52.998;5.862;2022-12-20T04:45:54;9.20;99.90
54431;DHT22;40342;52.998;5.862;2022-12-20T04:48:24;9.20;99.90
54431;DHT22;40342;52.998;5.862;2022-12-20T04:50:54;9.20;99.90
54431;DHT22;40342;52.998;5.862;2022-12-20T04:53:21;9.20;99.90
54431;DHT22;40342;52.998;5.862;2022-12-20T04:56:06;9.20;99.90
54431;DHT22;40342;52.998;5.862;2022-12-20T04:58:31;9.20;99.90
54431;DHT22;40342;52.998;5.862;2022-12-20T05:00:57;9.20;99.90
54431;DHT22;40342;52.998;5.862;2022-12-20T05:03:24;9.30;99.90
54431;DHT22;40342;52.998;5.862;2022-12-20T05:05:50;9.30;99.90
54431;DHT22;40342;52.998;5.862;2022-12-20T05:08:15;9.30;99.90
54431;DHT22;40342;52.998;5.862;2022-12-20T05:10:41;9.30;99.90
54431;DHT22;40342;52.998;5.862;2022-12-20T05:13:07;9.30;99.90
54431;DHT22;40342;52.998;5.862;2022-12-20T05:15:33;9.30;99.90
54431;DHT22;40342;52.998;5.862;2022-12-20T05:17:59;9.30;99.90
54431;DHT22;40342;52.998;5.862;2022-12-20T05:20:25;9.30;99.90
54431;DHT22;40342;52.998;5.862;2022-12-20T05:22:51;9.30;99.90
54431;DHT22;40342;52.998;5.862;2022-12-20T05:25:41;9.40;99.90
54431;DHT22;40342;52.998;5.862;2022-12-20T05:28:35;9.30;99.90
54431;DHT22;40342;52.998;5.862;2022-12-20T05:31:01;9.40;99.90
54431;DHT22;40342;52.998;5.862;2022-12-20T05:33:27;9.40;99.90
54431;DHT22;40342;52.998;5.862;2022-12-20T05:35:54;9.40;99.90
54431;DHT22;40342;52.998;5.862;2022-12-20T05:38:20;9.40;99.90
54431;DHT22;40342;52.998;5.862;2022-12-20T05:40:47;9.50;99.90
54431;DHT22;40342;52.998;5.862;2022-12-20T05:43:13;9.40;99.90
54431;DHT22;40342;52.998;5.862;2022-12-20T05:45:39;9.50;99.90
54431;DHT22;40342;52.998;5.862;2022-12-20T05:48:05;9.50;99.90
54431;DHT22;40342;52.998;5.862;2022-12-20T05:50:31;9.50;99.90
54431;DHT22;40342;52.998;5.862;2022-12-20T05:52:57;9.50;99.90
54431;DHT22;40342;52.998;5.862;2022-12-20T05:55:22;9.60;99.90
54431;DHT22;40342;52.998;5.862;2022-12-20T05:57:48;9.60;99.90
54431;DHT22;40342;52.998;5.862;2022-12-20T06:00:14;9.60;99.90
54431;DHT22;40342;52.998;5.862;2022-12-20T06:02:39;9.60;99.90
54431;DHT22;40342;52.998;5.862;2022-12-20T06:05:05;9.60;99.90
54431;DHT22;40342;52.998;5.862;2022-12-20T06:07:31;9.60;99.90
54431;DHT22;40342;52.998;5.862;2022-12-20T06:10:03;9.60;99.90
54431;DHT22;40342;52.998;5.862;2022-12-20T06:12:29;9.60;99.90
54431;DHT22;40342;52.998;5.862;2022-12-20T06:14:54;9.60;99.90
54431;DHT22;40342;52.998;5.862;2022-12-20T06:17:21;9.60;99.90
54431;DHT22;40342;52.998;5.862;2022-12-20T06:19:47;9.60;99.90
54431;DHT22;40342;52.998;5.862;2022-12-20T06:22:12;9.60;99.90
54431;DHT22;40342;52.998;5.862;2022-12-20T06:24:38;9.60;99.90
54431;DHT22;40342;52.998;5.862;2022-12-20T06:27:04;9.60;99.90
54431;DHT22;40342;52.998;5.862;2022-12-20T06:29:32;9.60;99.90
54431;DHT22;40342;52.998;5.862;2022-12-20T06:31:58;9.50;99.90
54431;DHT22;40342;52.998;5.862;2022-12-20T06:34:23;9.50;99.90
54431;DHT22;40342;52.998;5.862;2022-12-20T06:36:49;9.50;99.90
54431;DHT22;40342;52.998;5.862;2022-12-20T06:39:14;9.50;99.90
54431;DHT22;40342;52.998;5.862;2022-12-20T06:41:40;9.50;99.90
54431;DHT22;40342;52.998;5.862;2022-12-20T06:44:06;9.50;99.90
54431;DHT22;40342;52.998;5.862;2022-12-20T06:46:32;9.50;99.90
54431;DHT22;40342;52.998;5.862;2022-12-20T06:48:57;9.40;99.90
54431;DHT22;40342;52.998;5.862;2022-12-20T06:51:23;9.40;99.90
54431;DHT22;40342;52.998;5.862;2022-12-20T06:53:49;9.40;99.90
54431;DHT22;40342;52.998;5.862;2022-12-20T06:56:15;9.40;99.90
54431;DHT22;40342;52.998;5.862;2022-12-20T06:58:40;9.40;99.90
54431;DHT22;40342;52.998;5.862;2022-12-20T07:01:06;9.50;99.90
54431;DHT22;40342;52.998;5.862;2022-12-20T07:03:32;9.50;99.90
54431;DHT22;40342;52.998;5.862;2022-12-20T07:05:57;9.50;99.90
54431;DHT22;40342;52.998;5.862;2022-12-20T07:08:23;9.50;99.90
54431;DHT22;40342;52.998;5.862;2022-12-20T07:10:49;9.50;99.90
54431;DHT22;40342;52.998;5.862;2022-12-20T07:13:17;10.00;99.90
54431;DHT22;40342;52.998;5.862;2022-12-20T07:15:43;9.50;99.90
54431;DHT22;40342;52.998;5.862;2022-12-20T07:18:09;9.50;99.90
54431;DHT22;40342;52.998;5.862;2022-12-20T07:20:35;9.50;99.90
54431;DHT22;40342;52.998;5.862;2022-12-20T07:23:00;9.50;99.90
54431;DHT22;40342;52.998;5.862;2022-12-20T07:25:26;9.50;99.90
54431;DHT22;40342;52.998;5.862;2022-12-20T07:27:52;9.50;99.90
54431;DHT22;40342;52.998;5.862;2022-12-20T07:30:18;9.60;99.90
54431;DHT22;40342;52.998;5.862;2022-12-20T07:32:44;9.60;99.90
54431;DHT22;40342;52.998;5.862;2022-12-20T07:35:11;9.60;99.90
54431;DHT22;40342;52.998;5.862;2022-12-20T07:37:37;9.60;99.90
54431;DHT22;40342;52.998;5.862;2022-12-20T07:40:04;9.60;99.90
54431;DHT22;40342;52.998;5.862;2022-12-20T07:42:30;9.60;99.90
54431;DHT22;40342;52.998;5.862;2022-12-20T07:44:55;9.60;99.90
54431;DHT22;40342;52.998;5.862;2022-12-20T07:47:21;9.60;99.90
54431;DHT22;40342;52.998;5.862;2022-12-20T07:49:47;9.60;99.90
54431;DHT22;40342;52.998;5.862;2022-12-20T07:52:16;9.60;99.90
54431;DHT22;40342;52.998;5.862;2022-12-20T07:54:47;9.60;99.90
54431;DHT22;40342;52.998;5.862;2022-12-20T07:57:21;9.60;99.90
54431;DHT22;40342;52.998;5.862;2022-12-20T07:59:53;9.70;99.90
54431;DHT22;40342;52.998;5.862;2022-12-20T08:02:31;9.70;99.90
54431;DHT22;40342;52.998;5.862;2022-12-20T08:04:59;9.60;99.90
54431;DHT22;40342;52.998;5.862;2022-12-20T08:07:28;9.60;99.90
54431;DHT22;40342;52.998;5.862;2022-12-20T08:13:36;9.70;99.90
54431;DHT22;40342;52.998;5.862;2022-12-20T08:16:02;10.20;99.90
54431;DHT22;40342;52.998;5.862;2022-12-20T08:18:27;9.70;99.90
54431;DHT22;40342;52.998;5.862;2022-12-20T08:20:53;9.70;99.90
54431;DHT22;40342;52.998;5.862;2022-12-20T08:23:18;9.70;99.90
54431;DHT22;40342;52.998;5.862;2022-12-20T08:25:44;9.70;99.90
54431;DHT22;40342;52.998;5.862;2022-12-20T08:28:10;9.70;99.90
54431;DHT22;40342;52.998;5.862;2022-12-20T08:30:36;9.70;99.90
54431;DHT22;40342;52.998;5.862;2022-12-20T08:33:01;9.70;99.90
54431;DHT22;40342;52.998;5.862;2022-12-20T08:35:27;9.70;99.90
54431;DHT22;40342;52.998;5.862;2022-12-20T08:37:52;9.80;99.90
54431;DHT22;40342;52.998;5.862;2022-12-20T08:40:19;9.80;99.90
54431;DHT22;40342;52.998;5.862;2022-12-20T08:42:44;9.80;99.90
54431;DHT22;40342;52.998;5.862;2022-12-20T08:45:10;9.80;99.90
54431;DHT22;40342;52.998;5.862;2022-12-20T08:47:36;9.80;99.90
54431;DHT22;40342;52.998;5.862;2022-12-20T08:50:02;9.80;99.90
54431;DHT22;40342;52.998;5.862;2022-12-20T08:52:28;9.80;99.90
54431;DHT22;40342;52.998;5.862;2022-12-20T08:54:54;9.80;99.90
54431;DHT22;40342;52.998;5.862;2022-12-20T08:57:19;9.90;99.90
54431;DHT22;40342;52.998;5.862;2022-12-20T08:59:45;9.90;99.90
54431;DHT22;40342;52.998;5.862;2022-12-20T09:02:11;9.90;99.90
54431;DHT22;40342;52.998;5.862;2022-12-20T09:04:37;9.90;99.90
54431;DHT22;40342;52.998;5.862;2022-12-20T09:07:02;9.90;99.90
54431;DHT22;40342;52.998;5.862;2022-12-20T09:09:28;9.90;99.90
54431;DHT22;40342;52.998;5.862;2022-12-20T09:11:53;9.90;99.90
54431;DHT22;40342;52.998;5.862;2022-12-20T09:14:20;9.90;99.90
54431;DHT22;40342;52.998;5.862;2022-12-20T09:16:46;9.90;99.90
54431;DHT22;40342;52.998;5.862;2022-12-20T09:19:12;9.90;99.90
54431;DHT22;40342;52.998;5.862;2022-12-20T09:21:38;10.00;99.90
54431;DHT22;40342;52.998;5.862;2022-12-20T09:24:04;10.00;99.90
54431;DHT22;40342;52.998;5.862;2022-12-20T09:26:31;10.00;99.90
54431;DHT22;40342;52.998;5.862;2022-12-20T09:28:57;10.00;99.90
54431;DHT22;40342;52.998;5.862;2022-12-20T09:31:24;10.00;99.90
54431;DHT22;40342;52.998;5.862;2022-12-20T09:33:56;10.00;99.90
54431;DHT22;40342;52.998;5.862;2022-12-20T09:36:24;10.00;99.90
54431;DHT22;40342;52.998;5.862;2022-12-20T09:38:50;10.00;99.90
54431;DHT22;40342;52.998;5.862;2022-12-20T09:41:38;9.90;99.90
54431;DHT22;40342;52.998;5.862;2022-12-20T09:44:12;10.00;99.90
54431;DHT22;40342;52.998;5.862;2022-12-20T09:46:39;10.00;99.90
54431;DHT22;40342;52.998;5.862;2022-12-20T09:49:06;10.00;99.90
54431;DHT22;40342;52.998;5.862;2022-12-20T09:51:53;10.00;99.90
54431;DHT22;40342;52.998;5.862;2022-12-20T10:00:13;9.90;99.90
54431;DHT22;40342;52.998;5.862;2022-12-20T10:02:39;10.00;99.90
54431;DHT22;40342;52.998;5.862;2022-12-20T10:05:14;10.00;99.90
54431;DHT22;40342;52.998;5.862;2022-12-20T10:07:53;10.00;99.90
54431;DHT22;40342;52.998;5.862;2022-12-20T10:22:01;10.00;99.90
54431;DHT22;40342;52.998;5.862;2022-12-20T10:24:34;10.00;99.90
54431;DHT22;40342;52.998;5.862;2022-12-20T10:27:22;10.00;99.90
54431;DHT22;40342;52.998;5.862;2022-12-20T10:29:49;10.00;99.90
54431;DHT22;40342;52.998;5.862;2022-12-20T10:32:20;10.00;99.90
54431;DHT22;40342;52.998;5.862;2022-12-20T10:37:34;10.00;99.90
54431;DHT22;40342;52.998;5.862;2022-12-20T10:40:00;10.00;99.90
54431;DHT22;40342;52.998;5.862;2022-12-20T10:42:39;10.00;99.90
54431;DHT22;40342;52.998;5.862;2022-12-20T10:45:36;10.00;99.90
54431;DHT22;40342;52.998;5.862;2022-12-20T10:48:05;10.00;99.90
54431;DHT22;40342;52.998;5.862;2022-12-20T10:50:31;10.00;99.90
54431;DHT22;40342;52.998;5.862;2022-12-20T10:53:17;10.00;99.90
54431;DHT22;40342;52.998;5.862;2022-12-20T10:55:44;10.00;99.90
54431;DHT22;40342;52.998;5.862;2022-12-20T10:58:22;10.00;99.90
54431;DHT22;40342;52.998;5.862;2022-12-20T11:01:04;10.00;99.90
54431;DHT22;40342;52.998;5.862;2022-12-20T11:03:30;10.00;99.90
54431;DHT22;40342;52.998;5.862;2022-12-20T11:05:59;10.00;99.90
54431;DHT22;40342;52.998;5.862;2022-12-20T11:08:27;10.00;99.90
54431;DHT22;40342;52.998;5.862;2022-12-20T11:11:22;10.00;99.90
54431;DHT22;40342;52.998;5.862;2022-12-20T11:13:49;10.00;99.90
54431;DHT22;40342;52.998;5.862;2022-12-20T11:22:09;10.00;99.90
54431;DHT22;40342;52.998;5.862;2022-12-20T11:27:39;10.00;99.90
54431;DHT22;40342;52.998;5.862;2022-12-20T11:30:16;10.00;99.90
54431;DHT22;40342;52.998;5.862;2022-12-20T11:33:01;10.00;99.90
54431;DHT22;40342;52.998;5.862;2022-12-20T11:36:05;10.00;99.90
54431;DHT22;40342;52.998;5.862;2022-12-20T11:38:57;9.90;99.90
54431;DHT22;40342;52.998;5.862;2022-12-20T11:41:32;10.50;99.90
54431;DHT22;40342;52.998;5.862;2022-12-20T11:44:27;9.90;99.90
54431;DHT22;40342;52.998;5.862;2022-12-20T11:47:07;9.90;99.90
54431;DHT22;40342;52.998;5.862;2022-12-20T11:54:58;9.90;99.90
54431;DHT22;40342;52.998;5.862;2022-12-20T11:57:35;9.90;99.90
54431;DHT22;40342;52.998;5.862;2022-12-20T12:00:05;9.90;99.90
54431;DHT22;40342;52.998;5.862;2022-12-20T12:05:06;9.80;99.90
54431;DHT22;40342;52.998;5.862;2022-12-20T12:07:34;9.80;99.90
54431;DHT22;40342;52.998;5.862;2022-12-20T12:12:56;9.70;99.90
54431;DHT22;40342;52.998;5.862;2022-12-20T12:15:33;9.80;99.90
54431;DHT22;40342;52.998;5.862;2022-12-20T12:18:21;9.80;99.90
54431;DHT22;40342;52.998;5.862;2022-12-20T12:23:44;9.70;99.90
54431;DHT22;40342;52.998;5.862;2022-12-20T12:26:21;9.70;99.90
54431;DHT22;40342;52.998;5.862;2022-12-20T12:28:54;9.70;99.90
54431;DHT22;40342;52.998;5.862;2022-12-20T12:31:44;9.70;99.90
54431;DHT22;40342;52.998;5.862;2022-12-20T12:42:38;9.80;99.90
54431;DHT22;40342;52.998;5.862;2022-12-20T12:45:22;9.80;99.90
54431;DHT22;40342;52.998;5.862;2022-12-20T12:47:53;9.90;99.90
54431;DHT22;40342;52.998;5.862;2022-12-20T12:50:37;9.90;99.90
54431;DHT22;40342;52.998;5.862;2022-12-20T12:53:21;9.90;99.90
54431;DHT22;40342;52.998;5.862;2022-12-20T12:55:50;9.90;99.90
54431;DHT22;40342;52.998;5.862;2022-12-20T13:00:59;9.90;99.90
54431;DHT22;40342;52.998;5.862;2022-12-20T13:11:48;10.00;99.90
54431;DHT22;40342;52.998;5.862;2022-12-20T13:16:43;10.00;99.90
54431;DHT22;40342;52.998;5.862;2022-12-20T13:21:39;10.00;99.90
54431;DHT22;40342;52.998;5.862;2022-12-20T13:24:57;10.00;99.90
54431;DHT22;40342;52.998;5.862;2022-12-20T13:38:01;9.90;99.90
54431;DHT22;40342;52.998;5.862;2022-12-20T13:49:01;9.90;99.90
54431;DHT22;40342;52.998;5.862;2022-12-20T13:51:28;9.90;99.90
54431;DHT22;40342;52.998;5.862;2022-12-20T13:53:55;9.90;99.90
54431;DHT22;40342;52.998;5.862;2022-12-20T13:59:02;9.90;99.90
54431;DHT22;40342;52.998;5.862;2022-12-20T14:01:28;10.00;99.90
54431;DHT22;40342;52.998;5.862;2022-12-20T14:03:56;10.00;99.90
54431;DHT22;40342;52.998;5.862;2022-12-20T14:06:23;9.90;99.90
54431;DHT22;40342;52.998;5.862;2022-12-20T14:08:50;9.90;99.90
54431;DHT22;40342;52.998;5.862;2022-12-20T14:11:19;10.90;99.90
54431;DHT22;40342;52.998;5.862;2022-12-20T14:13:51;9.90;99.90
54431;DHT22;40342;52.998;5.862;2022-12-20T14:16:19;10.00;99.90
54431;DHT22;40342;52.998;5.862;2022-12-20T14:19:04;10.00;99.90
54431;DHT22;40342;52.998;5.862;2022-12-20T14:21:34;10.00;99.90
54431;DHT22;40342;52.998;5.862;2022-12-20T14:24:01;9.90;99.90
54431;DHT22;40342;52.998;5.862;2022-12-20T14:26:29;9.90;99.90
54431;DHT22;40342;52.998;5.862;2022-12-20T14:28:58;9.90;99.90
54431;DHT22;40342;52.998;5.862;2022-12-20T14:34:13;9.90;99.90
54431;DHT22;40342;52.998;5.862;2022-12-20T14:36:45;9.90;99.90
54431;DHT22;40342;52.998;5.862;2022-12-20T14:39:29;9.90;99.90
54431;DHT22;40342;52.998;5.862;2022-12-20T14:41:58;9.90;99.90
54431;DHT22;40342;52.998;5.862;2022-12-20T14:44:25;9.80;99.90
54431;DHT22;40342;52.998;5.862;2022-12-20T14:46:53;9.90;99.90
54431;DHT22;40342;52.998;5.862;2022-12-20T14:49:24;9.80;99.90
54431;DHT22;40342;52.998;5.862;2022-12-20T14:52:04;9.90;99.90
54431;DHT22;40342;52.998;5.862;2022-12-20T14:54:31;9.80;99.90
54431;DHT22;40342;52.998;5.862;2022-12-20T14:56:57;9.80;99.90
54431;DHT22;40342;52.998;5.862;2022-12-20T14:59:28;9.80;99.90
54431;DHT22;40342;52.998;5.862;2022-12-20T15:01:56;9.80;99.90
54431;DHT22;40342;52.998;5.862;2022-12-20T15:04:31;9.70;99.90
54431;DHT22;40342;52.998;5.862;2022-12-20T15:06:58;9.80;99.90
54431;DHT22;40342;52.998;5.862;2022-12-20T15:09:24;9.70;99.90
54431;DHT22;40342;52.998;5.862;2022-12-20T15:11:50;9.80;99.90
54431;DHT22;40342;52.998;5.862;2022-12-20T15:14:37;9.70;99.90
54431;DHT22;40342;52.998;5.862;2022-12-20T15:17:10;9.70;99.90
54431;DHT22;40342;52.998;5.862;2022-12-20T15:19:36;9.60;99.90
54431;DHT22;40342;52.998;5.862;2022-12-20T15:22:02;9.60;99.90
54431;DHT22;40342;52.998;5.862;2022-12-20T15:24:28;9.60;99.90
54431;DHT22;40342;52.998;5.862;2022-12-20T15:26:54;9.60;99.90
54431;DHT22;40342;52.998;5.862;2022-12-20T15:29:23;9.60;99.90
54431;DHT22;40342;52.998;5.862;2022-12-20T15:31:50;9.60;99.90
54431;DHT22;40342;52.998;5.862;2022-12-20T15:34:32;9.60;99.90
54431;DHT22;40342;52.998;5.862;2022-12-20T15:36:58;9.60;99.90
54431;DHT22;40342;52.998;5.862;2022-12-20T15:39:25;9.60;99.90
54431;DHT22;40342;52.998;5.862;2022-12-20T15:41:52;9.50;99.90
54431;DHT22;40342;52.998;5.862;2022-12-20T15:44:24;9.60;99.90
54431;DHT22;40342;52.998;5.862;2022-12-20T15:46:50;9.50;99.90
54431;DHT22;40342;52.998;5.862;2022-12-20T15:49:18;9.50;99.90
54431;DHT22;40342;52.998;5.862;2022-12-20T15:51:47;9.50;99.90
54431;DHT22;40342;52.998;5.862;2022-12-20T15:56:56;9.50;99.90
54431;DHT22;40342;52.998;5.862;2022-12-20T15:59:22;9.50;99.90
54431;DHT22;40342;52.998;5.862;2022-12-20T16:01:47;9.50;99.90
54431;DHT22;40342;52.998;5.862;2022-12-20T16:04:19;9.50;99.90
54431;DHT22;40342;52.998;5.862;2022-12-20T16:06:47;9.50;99.90
54431;DHT22;40342;52.998;5.862;2022-12-20T16:09:13;9.50;99.90
54431;DHT22;40342;52.998;5.862;2022-12-20T16:11:39;9.50;99.90
54431;DHT22;40342;52.998;5.862;2022-12-20T16:14:05;9.50;99.90
54431;DHT22;40342;52.998;5.862;2022-12-20T16:16:35;9.40;99.90
54431;DHT22;40342;52.998;5.862;2022-12-20T16:19:02;9.40;99.90
54431;DHT22;40342;52.998;5.862;2022-12-20T16:21:37;9.40;99.90
54431;DHT22;40342;52.998;5.862;2022-12-20T16:24:05;9.50;99.90
54431;DHT22;40342;52.998;5.862;2022-12-20T16:26:30;9.50;99.90
54431;DHT22;40342;52.998;5.862;2022-12-20T16:28:56;9.50;99.90
54431;DHT22;40342;52.998;5.862;2022-12-20T16:33:47;9.50;99.90
54431;DHT22;40342;52.998;5.862;2022-12-20T16:36:13;9.40;99.90
54431;DHT22;40342;52.998;5.862;2022-12-20T16:38:39;9.50;99.90
54431;DHT22;40342;52.998;5.862;2022-12-20T16:41:19;9.40;99.90
54431;DHT22;40342;52.998;5.862;2022-12-20T16:43:46;9.40;99.90
54431;DHT22;40342;52.998;5.862;2022-12-20T16:46:14;9.40;99.90
54431;DHT22;40342;52.998;5.862;2022-12-20T16:48:41;9.40;99.90
54431;DHT22;40342;52.998;5.862;2022-12-20T16:51:24;9.40;99.90
54431;DHT22;40342;52.998;5.862;2022-12-20T16:53:52;9.40;99.90
54431;DHT22;40342;52.998;5.862;2022-12-20T16:56:18;9.40;99.90
54431;DHT22;40342;52.998;5.862;2022-12-20T16:58:44;9.40;99.90
54431;DHT22;40342;52.998;5.862;2022-12-20T17:01:17;9.30;99.90
54431;DHT22;40342;52.998;5.862;2022-12-20T17:03:44;9.30;99.90
54431;DHT22;40342;52.998;5.862;2022-12-20T17:06:11;9.30;99.90
54431;DHT22;40342;52.998;5.862;2022-12-20T17:08:37;9.20;99.90
54431;DHT22;40342;52.998;5.862;2022-12-20T17:11:12;9.20;99.90
54431;DHT22;40342;52.998;5.862;2022-12-20T17:13:38;9.20;99.90
54431;DHT22;40342;52.998;5.862;2022-12-20T17:16:05;9.20;99.90
54431;DHT22;40342;52.998;5.862;2022-12-20T17:18:30;9.10;99.90
54431;DHT22;40342;52.998;5.862;2022-12-20T17:20:56;9.10;99.90
54431;DHT22;40342;52.998;5.862;2022-12-20T17:23:21;9.10;99.90
54431;DHT22;40342;52.998;5.862;2022-12-20T17:25:47;9.10;99.90
54431;DHT22;40342;52.998;5.862;2022-12-20T17:28:12;9.10;99.90
54431;DHT22;40342;52.998;5.862;2022-12-20T17:30:38;9.10;99.90
54431;DHT22;40342;52.998;5.862;2022-12-20T17:33:04;9.00;99.90
54431;DHT22;40342;52.998;5.862;2022-12-20T17:35:31;9.00;99.90
54431;DHT22;40342;52.998;5.862;2022-12-20T17:37:57;9.00;99.90
54431;DHT22;40342;52.998;5.862;2022-12-20T17:40:26;9.00;99.90
54431;DHT22;40342;52.998;5.862;2022-12-20T17:42:52;9.00;99.90
54431;DHT22;40342;52.998;5.862;2022-12-20T17:45:28;9.20;99.90
54431;DHT22;40342;52.998;5.862;2022-12-20T17:47:54;8.90;99.90
54431;DHT22;40342;52.998;5.862;2022-12-20T17:50:20;8.80;99.90
54431;DHT22;40342;52.998;5.862;2022-12-20T17:52:46;8.80;99.90